Airport ID:7S0
Update Time (UTC):20/04/2021 04:09
Wind Speed (Knots):5
Wind Direction (Magnetic):70
Temperature (°C):-1.7
Dew Point (°C):-5.9
Humidity (%):75.7
Altimeter (inHg):30.35
Density Altitude (Feet):
Visibility (Miles):10
Clouds (Hundreds of feet):***
Present Weather:
METAR:METAR 7S0 200405Z AUTO 08005KT 10SM M02/M06 A3035 RMK A01

The data displayed is for advisory purposes only and is not to be used for flight planning or operations.